createdAt,value
2023-03-02T00:02:04.066Z,39.80
2023-03-02T00:04:38.008Z,41.40
2023-03-02T00:07:12.720Z,34.80
2023-03-02T00:09:46.956Z,33.70
2023-03-02T00:12:16.359Z,32.60
2023-03-02T00:14:45.007Z,31.10
2023-03-02T00:17:13.543Z,30.70
2023-03-02T00:19:42.352Z,30.70
2023-03-02T00:22:11.261Z,29.60
2023-03-02T00:24:39.757Z,30.40
2023-03-02T00:27:08.140Z,32.70
2023-03-02T00:29:36.681Z,34.60
2023-03-02T00:32:06.822Z,31.00
2023-03-02T00:34:35.582Z,31.70
2023-03-02T00:37:06.824Z,34.00
2023-03-02T00:39:35.744Z,33.40
2023-03-02T00:42:03.876Z,33.00
2023-03-02T00:44:32.584Z,30.80
2023-03-02T00:47:01.118Z,31.30
2023-03-02T00:49:32.717Z,29.00
2023-03-02T00:52:01.292Z,28.10
2023-03-02T00:54:29.789Z,29.40
2023-03-02T00:56:58.766Z,28.50
2023-03-02T00:59:27.130Z,27.20
2023-03-02T01:01:59.042Z,25.50
2023-03-02T01:04:40.823Z,25.80
2023-03-02T01:07:18.468Z,26.10
2023-03-02T01:09:48.972Z,26.50
2023-03-02T01:12:17.470Z,25.90
2023-03-02T01:14:48.734Z,26.10
2023-03-02T01:17:17.170Z,27.20
2023-03-02T01:19:45.590Z,27.50
2023-03-02T01:22:14.441Z,26.50
2023-03-02T01:24:42.858Z,26.60
2023-03-02T01:27:14.077Z,25.40
2023-03-02T01:29:42.543Z,25.10
2023-03-02T01:32:11.214Z,27.10
2023-03-02T01:34:40.010Z,27.20
2023-03-02T01:37:08.598Z,25.30
2023-03-02T01:39:37.024Z,27.50
2023-03-02T01:42:05.727Z,25.80
2023-03-02T01:44:41.401Z,26.90
2023-03-02T01:47:19.021Z,27.10
2023-03-02T01:50:03.683Z,25.60
2023-03-02T01:52:35.401Z,27.20
2023-03-02T01:55:08.749Z,25.40
2023-03-02T01:57:44.001Z,26.90
2023-03-02T02:00:20.887Z,26.70
2023-03-02T02:02:52.844Z,24.80
2023-03-02T02:05:26.389Z,24.70
2023-03-02T02:07:55.027Z,23.60
2023-03-02T02:10:23.708Z,23.80
2023-03-02T02:12:52.211Z,24.60
2023-03-02T02:15:20.724Z,24.10
2023-03-02T02:17:49.246Z,23.20
2023-03-02T02:20:24.388Z,25.00
2023-03-02T02:23:19.671Z,22.80
2023-03-02T02:25:53.916Z,21.60
2023-03-02T02:28:30.783Z,22.90
2023-03-02T02:31:34.381Z,22.40
2023-03-02T02:34:12.564Z,22.00
2023-03-02T02:36:45.416Z,21.80
2023-03-02T02:39:22.338Z,21.10
2023-03-02T02:41:55.601Z,22.30
2023-03-02T02:44:24.074Z,21.90
2023-03-02T02:46:52.551Z,21.90
2023-03-02T02:49:31.881Z,21.20
2023-03-02T02:52:00.876Z,20.50
2023-03-02T02:54:31.354Z,21.60
2023-03-02T02:57:03.465Z,20.30
2023-03-02T02:59:44.000Z,21.00
2023-03-02T03:02:22.494Z,21.70
2023-03-02T03:04:51.681Z,20.60
2023-03-02T03:07:25.336Z,20.40
2023-03-02T03:10:04.728Z,20.10
2023-03-02T03:12:34.880Z,21.10
2023-03-02T03:15:04.167Z,19.90
2023-03-02T03:17:32.586Z,20.90
2023-03-02T03:20:11.068Z,21.80
2023-03-02T03:22:39.890Z,21.30
2023-03-02T03:25:08.705Z,19.60
2023-03-02T03:27:37.040Z,20.70
2023-03-02T03:30:06.380Z,21.90
2023-03-02T03:32:35.722Z,21.80
2023-03-02T03:35:09.722Z,21.30
2023-03-02T03:37:40.664Z,20.80
2023-03-02T03:40:11.191Z,21.00
2023-03-02T03:42:39.935Z,22.20
2023-03-02T03:45:09.141Z,21.50
2023-03-02T03:47:37.609Z,20.80
2023-03-02T03:50:06.230Z,18.70
2023-03-02T03:52:35.050Z,19.60
2023-03-02T03:55:03.640Z,20.30
2023-03-02T03:57:32.242Z,20.40
2023-03-02T04:00:00.495Z,21.20
2023-03-02T04:02:30.289Z,17.90
2023-03-02T04:05:09.031Z,19.60
2023-03-02T04:07:43.629Z,18.40
2023-03-02T04:10:12.794Z,18.70
2023-03-02T04:12:42.115Z,17.70
2023-03-02T04:15:16.256Z,17.40
2023-03-02T04:17:45.196Z,17.80
2023-03-02T04:20:17.973Z,17.10
2023-03-02T04:22:48.777Z,16.90
2023-03-02T04:25:20.674Z,17.40
2023-03-02T04:27:51.285Z,18.50
2023-03-02T04:30:23.648Z,17.50
2023-03-02T04:32:52.444Z,17.00
2023-03-02T04:35:20.699Z,17.10
2023-03-02T04:37:48.792Z,18.00
2023-03-02T04:40:17.862Z,19.10
2023-03-02T04:42:46.432Z,18.70
2023-03-02T04:45:15.698Z,16.40
2023-03-02T04:47:44.159Z,17.90
2023-03-02T04:50:14.691Z,18.20
2023-03-02T04:52:43.502Z,19.10
2023-03-02T04:55:19.883Z,19.80
2023-03-02T04:57:48.565Z,18.40
2023-03-02T05:00:19.416Z,18.10
2023-03-02T05:02:48.395Z,17.50
2023-03-02T05:05:24.823Z,18.60
2023-03-02T05:08:00.253Z,19.10
2023-03-02T05:10:29.239Z,18.80
2023-03-02T05:13:05.297Z,19.20
2023-03-02T05:15:39.210Z,18.90
2023-03-02T05:18:10.320Z,18.50
2023-03-02T05:20:39.787Z,19.10
2023-03-02T05:23:10.202Z,19.80
2023-03-02T05:25:39.079Z,20.00
2023-03-02T05:28:07.645Z,19.90
2023-03-02T05:30:38.163Z,21.10
2023-03-02T05:33:06.975Z,18.70
2023-03-02T05:35:39.328Z,19.70
2023-03-02T05:38:08.790Z,20.60
2023-03-02T05:40:37.159Z,19.90
2023-03-02T05:43:08.765Z,19.80
2023-03-02T05:45:38.904Z,18.50
2023-03-02T05:48:07.982Z,18.20
2023-03-02T05:50:39.530Z,18.60
2023-03-02T05:53:08.304Z,20.10
2023-03-02T05:55:37.385Z,23.20
2023-03-02T05:58:13.659Z,25.60
2023-03-02T06:00:42.733Z,26.20
2023-03-02T06:03:11.130Z,22.00
2023-03-02T06:05:42.746Z,21.60
2023-03-02T06:08:11.174Z,21.50
2023-03-02T06:10:39.497Z,21.90
2023-03-02T06:13:09.317Z,20.00
2023-03-02T06:15:40.028Z,21.00
2023-03-02T06:18:08.251Z,20.60
2023-03-02T06:20:36.897Z,20.20
2023-03-02T06:23:05.833Z,19.80
2023-03-02T06:25:36.171Z,21.00
2023-03-02T06:28:04.661Z,21.50
2023-03-02T06:30:33.063Z,20.70
2023-03-02T06:33:01.891Z,20.00
2023-03-02T06:35:30.496Z,19.80
2023-03-02T06:38:01.001Z,18.50
2023-03-02T06:40:30.644Z,17.90
2023-03-02T06:43:02.099Z,17.80
2023-03-02T06:45:35.386Z,17.70
2023-03-02T06:48:04.931Z,18.40
2023-03-02T06:50:34.754Z,19.80
2023-03-02T06:53:03.071Z,18.20
2023-03-02T06:55:31.622Z,19.80
2023-03-02T06:58:02.935Z,20.50
2023-03-02T07:00:31.211Z,19.40
2023-03-02T07:02:59.542Z,20.10
2023-03-02T07:05:28.300Z,19.20
2023-03-02T07:07:57.211Z,16.70
2023-03-02T07:10:26.407Z,18.10
2023-03-02T07:12:55.206Z,16.60
2023-03-02T07:15:23.809Z,18.00
2023-03-02T07:17:54.900Z,17.20
2023-03-02T07:20:23.268Z,18.90
2023-03-02T07:22:54.765Z,19.40
2023-03-02T07:25:23.217Z,18.90
2023-03-02T07:27:53.446Z,19.00
2023-03-02T07:30:22.215Z,19.10
2023-03-02T07:32:51.102Z,21.20
2023-03-02T07:35:19.469Z,23.00
2023-03-02T07:37:51.018Z,22.00
2023-03-02T07:40:19.700Z,22.60
2023-03-02T07:42:51.627Z,21.50
2023-03-02T07:45:25.244Z,21.60
2023-03-02T07:47:55.614Z,20.00
2023-03-02T07:50:24.187Z,21.60
2023-03-02T07:52:52.492Z,20.60
2023-03-02T07:55:20.410Z,21.00
2023-03-02T07:57:48.842Z,21.00
2023-03-02T08:00:17.584Z,20.40
2023-03-02T08:02:48.391Z,20.90
2023-03-02T08:05:17.207Z,19.70
2023-03-02T08:07:47.917Z,19.90
2023-03-02T08:10:19.148Z,18.50
2023-03-02T08:12:47.398Z,14.90
2023-03-02T08:15:15.938Z,14.50
2023-03-02T08:17:47.120Z,14.70
2023-03-02T08:20:16.147Z,14.70
2023-03-02T08:22:44.521Z,17.20
2023-03-02T08:25:13.038Z,20.90
2023-03-02T08:27:41.603Z,20.60
2023-03-02T08:30:11.292Z,20.40
2023-03-02T08:32:40.719Z,19.10
2023-03-02T08:35:09.722Z,18.00
2023-03-02T08:37:38.351Z,17.10
2023-03-02T08:40:11.935Z,16.30
2023-03-02T08:42:43.757Z,17.70
2023-03-02T08:45:12.948Z,17.50
2023-03-02T08:47:41.241Z,15.30
2023-03-02T08:50:10.194Z,20.00
2023-03-02T08:52:39.170Z,23.00
2023-03-02T08:55:08.733Z,26.20
2023-03-02T08:57:37.394Z,25.60
2023-03-02T09:00:09.387Z,24.20
2023-03-02T09:02:41.687Z,25.10
2023-03-02T09:05:10.816Z,26.20
2023-03-02T09:07:39.484Z,24.30
2023-03-02T09:10:07.791Z,28.90
2023-03-02T09:12:35.903Z,23.80
2023-03-02T09:15:04.468Z,24.20
2023-03-02T09:17:32.727Z,24.00
2023-03-02T09:20:00.928Z,24.30
2023-03-02T09:22:36.281Z,24.10
2023-03-02T09:25:06.197Z,23.30
2023-03-02T09:27:34.505Z,25.50
2023-03-02T09:30:04.928Z,24.00
2023-03-02T09:32:33.999Z,24.90
2023-03-02T09:35:02.674Z,25.40
2023-03-02T09:37:30.966Z,24.50
2023-03-02T09:39:59.767Z,23.10
2023-03-02T09:43:00.738Z,18.70
2023-03-02T09:45:35.506Z,18.70
2023-03-02T09:48:35.195Z,17.40
2023-03-02T09:51:39.682Z,19.90
2023-03-02T09:54:14.267Z,18.70
2023-03-02T09:56:49.966Z,15.30
2023-03-02T09:59:25.229Z,15.00
2023-03-02T10:02:18.427Z,18.60
2023-03-02T10:04:53.639Z,19.10
2023-03-02T10:07:35.728Z,18.20
2023-03-02T10:10:33.375Z,17.80
2023-03-02T10:13:36.475Z,15.60
2023-03-02T10:16:26.466Z,15.30
2023-03-02T10:19:25.434Z,15.30
2023-03-02T10:22:27.942Z,15.70
2023-03-02T10:25:42.104Z,16.50
2023-03-02T10:28:20.990Z,12.40
2023-03-02T10:31:09.984Z,15.20
2023-03-02T10:33:40.812Z,13.60
2023-03-02T10:36:39.894Z,14.80
2023-03-02T10:39:14.098Z,15.10
2023-03-02T10:41:56.539Z,14.90
2023-03-02T10:44:37.807Z,15.60
2023-03-02T10:47:08.668Z,16.80
2023-03-02T10:49:42.543Z,14.70
2023-03-02T10:52:16.683Z,15.90
2023-03-02T10:54:45.463Z,17.80
2023-03-02T10:57:38.461Z,15.60
2023-03-02T11:00:18.223Z,13.00
2023-03-02T11:02:54.370Z,12.80
2023-03-02T11:05:37.118Z,13.80
2023-03-02T11:08:09.651Z,12.20
2023-03-02T11:10:51.986Z,14.10
2023-03-02T11:13:29.372Z,11.40
2023-03-02T11:16:22.783Z,8.70
2023-03-02T11:19:18.500Z,8.70
2023-03-02T11:22:31.619Z,8.80
2023-03-02T11:25:05.697Z,9.30
2023-03-02T11:27:37.174Z,8.30
2023-03-02T11:30:19.809Z,10.40
2023-03-02T11:33:29.678Z,11.80
2023-03-02T11:36:11.505Z,12.40
2023-03-02T11:38:53.702Z,12.10
2023-03-02T11:41:31.727Z,11.90
2023-03-02T11:44:07.120Z,11.50
2023-03-02T11:46:36.192Z,11.60
2023-03-02T11:49:17.785Z,12.10
2023-03-02T11:51:58.782Z,11.50
2023-03-02T11:54:39.589Z,10.80
2023-03-02T11:57:19.856Z,12.20
2023-03-02T11:59:49.399Z,11.90
2023-03-02T12:02:21.207Z,11.90
2023-03-02T12:04:50.188Z,9.90
2023-03-02T12:07:26.003Z,10.00
2023-03-02T12:10:04.737Z,11.50
2023-03-02T12:12:44.421Z,10.50
2023-03-02T12:15:52.440Z,10.00
2023-03-02T12:18:23.321Z,10.90
2023-03-02T12:21:02.474Z,10.60
2023-03-02T12:23:33.441Z,12.60
2023-03-02T12:26:22.225Z,12.20
2023-03-02T12:29:21.952Z,11.80
2023-03-02T12:31:55.608Z,11.00
2023-03-02T12:34:35.850Z,11.60
2023-03-02T12:37:18.917Z,11.90
2023-03-02T12:40:19.326Z,13.00
2023-03-02T12:42:53.535Z,12.50
2023-03-02T12:45:51.486Z,12.20
2023-03-02T12:48:29.815Z,12.00
2023-03-02T12:51:03.555Z,11.90
2023-03-02T12:53:32.605Z,12.00
2023-03-02T12:56:00.943Z,12.10
2023-03-02T12:58:29.874Z,12.00
2023-03-02T13:01:14.651Z,11.40
2023-03-02T13:03:49.285Z,11.20
2023-03-02T13:06:20.657Z,11.10
2023-03-02T13:08:53.085Z,10.80
2023-03-02T13:11:35.886Z,11.70
2023-03-02T13:14:22.466Z,14.30
2023-03-02T13:17:00.226Z,11.90
2023-03-02T13:19:32.139Z,10.50
2023-03-02T13:22:01.042Z,10.40
2023-03-02T13:24:52.698Z,15.20
2023-03-02T13:27:23.939Z,10.80
2023-03-02T13:29:53.208Z,11.30
2023-03-02T13:32:28.820Z,10.40
2023-03-02T13:35:02.580Z,10.90
2023-03-02T13:37:37.850Z,10.60
2023-03-02T13:40:31.510Z,10.50
2023-03-02T13:43:03.228Z,10.70
2023-03-02T13:45:33.118Z,11.00
2023-03-02T13:48:15.655Z,11.60
2023-03-02T13:50:53.888Z,16.30
2023-03-02T13:53:24.631Z,11.70
2023-03-02T13:55:57.079Z,10.90
2023-03-02T13:58:30.171Z,11.20
2023-03-02T14:00:58.755Z,10.20
2023-03-02T14:03:30.742Z,10.40
2023-03-02T14:06:05.724Z,11.80
2023-03-02T14:08:36.359Z,11.60
2023-03-02T14:11:38.438Z,10.80
2023-03-02T14:14:08.575Z,12.00
2023-03-02T14:16:40.191Z,11.20
2023-03-02T14:19:13.825Z,12.70
2023-03-02T14:21:43.653Z,12.60
2023-03-02T14:24:15.304Z,9.40
2023-03-02T14:26:47.497Z,10.50
2023-03-02T14:29:21.916Z,10.30
2023-03-02T14:31:50.682Z,10.10
2023-03-02T14:34:19.128Z,10.80
2023-03-02T14:36:51.480Z,10.60
2023-03-02T14:39:24.844Z,13.00
2023-03-02T14:41:54.749Z,12.80
2023-03-02T14:44:23.570Z,12.20
2023-03-02T14:46:53.303Z,12.10
2023-03-02T14:49:22.072Z,12.20
2023-03-02T14:52:05.253Z,12.60
2023-03-02T14:54:56.960Z,12.90
2023-03-02T14:57:27.200Z,13.20
2023-03-02T15:00:03.165Z,11.80
2023-03-02T15:02:32.059Z,12.00
2023-03-02T15:05:00.456Z,10.90
2023-03-02T15:07:30.181Z,12.00
2023-03-02T15:09:59.200Z,12.00
2023-03-02T15:12:27.614Z,12.20
2023-03-02T15:14:59.948Z,12.20
2023-03-02T15:17:31.386Z,11.20
2023-03-02T15:20:00.255Z,13.00
2023-03-02T15:22:28.512Z,30.70
2023-03-02T15:24:56.814Z,17.20
2023-03-02T15:27:26.418Z,12.30
2023-03-02T15:29:57.548Z,11.50
2023-03-02T15:32:27.139Z,11.90
2023-03-02T15:34:55.692Z,10.90
2023-03-02T15:37:24.115Z,13.10
2023-03-02T15:39:57.072Z,13.70
2023-03-02T15:42:25.376Z,12.50
2023-03-02T15:44:53.398Z,11.30
2023-03-02T15:47:21.702Z,11.50
2023-03-02T15:49:49.948Z,10.10
2023-03-02T15:52:20.679Z,10.40
2023-03-02T15:54:49.876Z,10.80
2023-03-02T15:57:18.097Z,10.30
2023-03-02T15:59:46.593Z,10.70
2023-03-02T16:02:15.673Z,12.90
2023-03-02T16:04:46.877Z,14.20
2023-03-02T16:07:17.931Z,14.50
2023-03-02T16:09:46.550Z,15.60
2023-03-02T16:12:18.148Z,12.00
2023-03-02T16:14:46.632Z,12.90
2023-03-02T16:17:15.175Z,14.30
2023-03-02T16:19:46.495Z,16.00
2023-03-02T16:22:15.173Z,13.90
2023-03-02T16:24:43.678Z,16.40
2023-03-02T16:27:11.998Z,18.80
2023-03-02T16:29:40.599Z,19.70
2023-03-02T16:32:09.359Z,17.10
2023-03-02T16:34:38.140Z,19.10
2023-03-02T16:37:06.467Z,20.50
2023-03-02T16:39:34.770Z,27.30
2023-03-02T16:42:04.177Z,36.30
2023-03-02T16:44:32.621Z,27.10
2023-03-02T16:47:01.320Z,27.20
2023-03-02T16:49:29.976Z,30.90
2023-03-02T16:52:01.186Z,25.70
2023-03-02T16:54:29.579Z,27.20
2023-03-02T16:56:59.987Z,29.80
2023-03-02T16:59:28.551Z,31.80
2023-03-02T17:02:00.001Z,29.60
2023-03-02T17:04:36.151Z,34.10
2023-03-02T17:07:06.490Z,36.70
2023-03-02T17:09:37.296Z,32.90
2023-03-02T17:12:06.107Z,32.50
2023-03-02T17:14:34.695Z,34.20
2023-03-02T17:17:03.280Z,33.80
2023-03-02T17:19:31.447Z,35.90
2023-03-02T17:22:01.835Z,39.30
2023-03-02T17:24:31.856Z,45.10
2023-03-02T17:27:00.601Z,40.80
2023-03-02T17:29:28.810Z,43.00
2023-03-02T17:31:57.519Z,46.20
2023-03-02T17:34:30.919Z,50.50
2023-03-02T17:37:01.750Z,53.40
2023-03-02T17:39:30.144Z,45.70
2023-03-02T17:41:58.474Z,48.60
2023-03-02T17:44:27.777Z,52.60
2023-03-02T17:46:57.355Z,54.80
2023-03-02T17:49:26.031Z,52.20
2023-03-02T17:51:54.239Z,43.70
2023-03-02T17:54:25.117Z,44.30
2023-03-02T17:56:53.729Z,48.90
2023-03-02T17:59:23.668Z,51.40
2023-03-02T18:01:55.181Z,58.40
2023-03-02T18:04:23.791Z,57.20
2023-03-02T18:06:54.089Z,41.70
2023-03-02T18:09:22.858Z,42.10
2023-03-02T18:11:54.584Z,39.90
2023-03-02T18:14:24.424Z,41.80
2023-03-02T18:16:55.867Z,53.00
2023-03-02T18:19:24.861Z,55.70
2023-03-02T18:21:53.878Z,54.10
2023-03-02T18:24:27.564Z,64.20
2023-03-02T18:26:56.705Z,49.90
2023-03-02T18:29:25.442Z,64.90
2023-03-02T18:31:54.045Z,62.80
2023-03-02T18:34:22.512Z,51.60
2023-03-02T18:36:50.664Z,56.20
2023-03-02T18:39:23.160Z,39.70
2023-03-02T18:41:55.131Z,43.10
2023-03-02T18:44:28.248Z,42.90
2023-03-02T18:46:56.532Z,45.90
2023-03-02T18:49:25.447Z,44.90
2023-03-02T18:51:56.073Z,45.80
2023-03-02T18:54:25.528Z,50.90
2023-03-02T18:56:55.633Z,59.80
2023-03-02T18:59:23.788Z,58.80
2023-03-02T19:01:52.019Z,56.70
2023-03-02T19:04:28.162Z,54.20
2023-03-02T19:06:57.582Z,50.90
2023-03-02T19:09:26.335Z,49.30
2023-03-02T19:11:54.481Z,47.00
2023-03-02T19:14:24.373Z,48.90
2023-03-02T19:16:55.652Z,47.80
2023-03-02T19:19:24.014Z,46.70
2023-03-02T19:21:52.630Z,45.50
2023-03-02T19:24:20.997Z,45.60
2023-03-02T19:26:50.688Z,47.30
2023-03-02T19:29:19.298Z,46.50
2023-03-02T19:31:47.850Z,47.60
2023-03-02T19:34:16.277Z,48.50
2023-03-02T19:36:44.692Z,50.20
2023-03-02T19:39:16.067Z,48.30
2023-03-02T19:41:47.809Z,51.00
2023-03-02T19:44:17.484Z,49.00
2023-03-02T19:46:45.941Z,48.30
2023-03-02T19:49:14.441Z,45.10
2023-03-02T19:51:42.730Z,47.10
2023-03-02T19:54:11.414Z,51.00
2023-03-02T19:56:43.406Z,49.20
2023-03-02T19:59:11.832Z,60.60
2023-03-02T20:01:40.073Z,57.80
2023-03-02T20:04:08.683Z,89.90
2023-03-02T20:06:39.042Z,95.70
2023-03-02T20:09:13.439Z,76.30
2023-03-02T20:11:41.686Z,82.00
2023-03-02T20:14:10.132Z,76.20
2023-03-02T20:16:39.483Z,67.10
2023-03-02T20:19:09.436Z,58.20
2023-03-02T20:21:38.778Z,52.00
2023-03-02T20:24:08.488Z,45.60
2023-03-02T20:26:37.233Z,47.30
2023-03-02T20:29:05.989Z,48.40
2023-03-02T20:31:35.614Z,51.80
2023-03-02T20:34:08.644Z,43.30
2023-03-02T20:36:41.374Z,42.60
2023-03-02T20:39:23.806Z,65.10
2023-03-02T20:41:52.542Z,39.70
2023-03-02T20:44:22.674Z,45.10
2023-03-02T20:46:57.655Z,41.00
2023-03-02T20:49:28.729Z,39.50
2023-03-02T20:52:00.613Z,40.60
2023-03-02T20:54:35.527Z,40.40
2023-03-02T20:57:05.635Z,38.50
2023-03-02T20:59:34.637Z,34.80
2023-03-02T21:02:02.979Z,39.70
2023-03-02T21:04:31.450Z,41.00
2023-03-02T21:07:00.120Z,39.30
2023-03-02T21:09:31.595Z,40.30
2023-03-02T21:12:00.977Z,34.50
2023-03-02T21:14:30.783Z,34.30
2023-03-02T21:17:01.020Z,33.00
2023-03-02T21:19:32.836Z,32.90
2023-03-02T21:22:01.458Z,34.60
2023-03-02T21:24:30.330Z,36.00
2023-03-02T21:27:00.620Z,36.70
2023-03-02T21:29:29.422Z,32.90
2023-03-02T21:31:58.446Z,33.10
2023-03-02T21:34:26.810Z,35.90
2023-03-02T21:36:58.119Z,34.00
2023-03-02T21:39:27.385Z,34.10
2023-03-02T21:41:56.332Z,36.00
2023-03-02T21:44:25.112Z,33.60
2023-03-02T21:46:53.708Z,34.20
2023-03-02T21:49:23.447Z,32.30
2023-03-02T21:51:52.450Z,32.00
2023-03-02T21:54:26.075Z,34.30
2023-03-02T21:56:54.498Z,32.60
2023-03-02T21:59:23.134Z,33.00
2023-03-02T22:01:52.499Z,34.70
2023-03-02T22:04:24.064Z,32.90
2023-03-02T22:06:55.385Z,30.90
2023-03-02T22:09:24.439Z,31.00
2023-03-02T22:11:54.959Z,31.30
2023-03-02T22:14:29.540Z,29.80
2023-03-02T22:16:58.695Z,31.10
2023-03-02T22:19:32.360Z,33.80
2023-03-02T22:22:03.417Z,32.40
2023-03-02T22:24:36.300Z,33.30
2023-03-02T22:27:25.609Z,32.70
2023-03-02T22:29:58.048Z,31.80
2023-03-02T22:32:37.105Z,31.30
2023-03-02T22:35:29.877Z,32.60
2023-03-02T22:38:09.610Z,31.30
2023-03-02T22:40:37.857Z,30.20
2023-03-02T22:43:29.703Z,32.60
2023-03-02T22:46:17.701Z,30.00
2023-03-02T22:48:53.290Z,30.50
2023-03-02T22:51:30.781Z,29.70
2023-03-02T22:54:01.025Z,28.10
2023-03-02T22:56:37.585Z,26.50
2023-03-02T22:59:23.016Z,27.00
2023-03-02T23:02:02.368Z,28.50
2023-03-02T23:04:35.679Z,25.90
2023-03-02T23:07:24.390Z,26.90
2023-03-02T23:09:53.086Z,28.00
2023-03-02T23:12:30.023Z,27.20
2023-03-02T23:15:00.060Z,28.30
2023-03-02T23:17:39.478Z,26.00
2023-03-02T23:20:12.074Z,26.10
2023-03-02T23:22:40.892Z,27.70
2023-03-02T23:25:09.509Z,27.60
2023-03-02T23:27:37.832Z,26.70
2023-03-02T23:30:06.638Z,27.60
2023-03-02T23:32:35.504Z,26.70
2023-03-02T23:35:04.300Z,27.90
2023-03-02T23:37:33.384Z,28.80
2023-03-02T23:40:01.576Z,26.80
2023-03-02T23:42:29.908Z,25.50
2023-03-02T23:44:58.276Z,26.90
2023-03-02T23:47:26.464Z,26.00
2023-03-02T23:49:54.774Z,25.20
2023-03-02T23:52:22.867Z,22.60
2023-03-02T23:54:51.691Z,24.80
2023-03-02T23:57:20.562Z,23.70
2023-03-02T23:59:49.100Z,25.20
